Ann Arbor, MI

3:04 AM EDT on October 31, 2014 (GMT -0400)
Willow Run | Change Station
CLOSE
Current Station
Airport
Location: Ypsilanti,
Elevation: 715 ft
Nearby Weather Stations

Elev 715 ft 42.24 °N, 83.53 °W | Updated 11 minutes ago

Overcast
Overcast
48 °F
Feels Like 48 °F
N
9
Wind Variable Wind from SW

Today
High -- | Low -- °F
--% Chance of Precip.
Yesterday
High -- | Low -- °F
Precip. -- in
8:07 AM 6:29 PM
First Quarter, 52% visible
Pressure 29.98 in
Visibility 10.0 miles
Clouds Scattered Clouds 4200 ft
Overcast 5000 ft
Dew Point 36 °F
Humidity 63%
Rainfall 0.00 in
Snow Depth Not available.
UV 0 out of 12
Pollen .10 out of 12
Air Quality Not available.
Flu Activity Not available.
METAR KYIP 310653Z AUTO 22008KT 10SM SCT042 OVC050 09/02 A2997 RMK AO2 SLP150 T00890022 TSNO

More Conditions Fewer Conditions

Pressure 29.98 in
Visibility 10.0 miles
Clouds Scattered Clouds 4200 ft
Overcast 5000 ft
Dew Point 36 °F
Humidity 63%
Rainfall 0.00 in
Snow Depth Not available.
UV 0 out of 12
Pollen .10 out of 12
Air Quality Not available.
Flu Activity Not available.
METAR KYIP 310653Z AUTO 22008KT 10SM SCT042 OVC050 09/02 A2997 RMK AO2 SLP150 T00890022 TSNO

More Conditions Fewer Conditions

10-Day Weather Forecast

Almanac

Astronomy

Oct. 31, 2014 Rise Set
Actual Time
Civil Twilight
Nautical Twilight
Astronomical Twilight
Moon
Length of Visible Light
Length of Day
Tomorrow will be .
, % of the Moon is Illuminated

Today's Extremes

State Highs State Lows

Community

WunderPhotos

Upload Photos

1,766,571 photos uploaded!

WunderBlogs® & News

Nearby

Air Quality

  Air Quality AQ Index Pollutant
Not available.

Snow Depth

Station Depth Elevation

Earthquake Activity

City Distance Mag. Time & Date
Minimum magnitude displayed is 2.5.

Coastal Water Temperatures

Place Temperature

Nearby Weather Stations